createdAt,value
2019-04-21T00:00:31.824Z,1024.18
2019-04-21T00:01:35.621Z,1024.20
2019-04-21T00:02:35.784Z,1024.17
2019-04-21T00:03:38.334Z,1024.13
2019-04-21T00:04:42.944Z,1024.15
2019-04-21T00:05:53.256Z,1024.12
2019-04-21T00:06:48.549Z,1024.17
2019-04-21T00:07:51.082Z,1024.13
2019-04-21T00:08:50.829Z,1024.17
2019-04-21T00:09:56.380Z,1024.11
2019-04-21T00:10:57.787Z,1024.12
2019-04-21T00:11:57.175Z,1024.07
2019-04-21T00:12:49.446Z,1024.08
2019-04-21T00:13:42.495Z,1024.01
2019-04-21T00:14:43.818Z,1024.06
2019-04-21T00:15:38.694Z,1024.07
2019-04-21T00:16:39.088Z,1024.04
2019-04-21T00:17:32.073Z,1024.10
2019-04-21T00:18:40.866Z,1024.07
2019-04-21T00:19:34.955Z,1024.06
2019-04-21T00:20:39.227Z,1024.05
2019-04-21T00:21:38.485Z,1024.02
2019-04-21T00:22:44.307Z,1023.99
2019-04-21T00:23:49.617Z,1024.03
2019-04-21T00:24:44.328Z,1024.02
2019-04-21T00:25:46.012Z,1024.06
2019-04-21T00:26:49.320Z,1024.02
2019-04-21T00:27:46.479Z,1024.02
2019-04-21T00:28:59.488Z,1024.02
2019-04-21T00:29:48.248Z,1024.03
2019-04-21T00:30:50.913Z,1024.02
2019-04-21T00:31:45.571Z,1024.02
2019-04-21T00:32:41.822Z,1024.00
2019-04-21T00:33:35.254Z,1024.01
2019-04-21T00:34:32.136Z,1024.01
2019-04-21T00:35:39.588Z,1023.98
2019-04-21T00:36:43.028Z,1023.96
2019-04-21T00:37:53.469Z,1024.02
2019-04-21T00:39:03.063Z,1023.95
2019-04-21T00:40:17.848Z,1023.88
2019-04-21T00:40:54.161Z,1023.94
2019-04-21T00:41:53.669Z,1023.90
2019-04-21T00:42:48.869Z,1023.84
2019-04-21T00:43:44.785Z,1023.92
2019-04-21T00:44:51.151Z,1023.91
2019-04-21T00:45:43.528Z,1023.90
2019-04-21T00:46:45.306Z,1023.85
2019-04-21T00:47:51.112Z,1023.82
2019-04-21T00:48:55.112Z,1023.81
2019-04-21T00:49:53.910Z,1023.85
2019-04-21T00:51:03.546Z,1023.82
2019-04-21T00:52:03.897Z,1023.81
2019-04-21T00:53:05.705Z,1023.80
2019-04-21T00:54:02.807Z,1023.79
2019-04-21T00:55:01.721Z,1023.80
2019-04-21T00:55:51.400Z,1023.73
2019-04-21T00:56:56.663Z,1023.77
2019-04-21T00:57:58.500Z,1023.77
2019-04-21T00:58:53.409Z,1023.75
2019-04-21T00:59:54.459Z,1023.77
2019-04-21T01:01:48.095Z,1023.73
2019-04-21T01:02:57.588Z,1023.74
2019-04-21T01:03:55.026Z,1023.80
2019-04-21T01:04:57.652Z,1023.77
2019-04-21T01:05:58.430Z,1023.77
2019-04-21T01:06:47.950Z,1023.76
2019-04-21T01:07:50.615Z,1023.77
2019-04-21T01:08:46.823Z,1023.75
2019-04-21T01:09:45.021Z,1023.71
2019-04-21T01:10:43.566Z,1023.75
2019-04-21T01:11:49.466Z,1023.75
2019-04-21T01:12:56.318Z,1023.70
2019-04-21T01:13:58.290Z,1023.73
2019-04-21T01:14:56.927Z,1023.72
2019-04-21T01:15:54.570Z,1023.75
2019-04-21T01:16:51.984Z,1023.74
2019-04-21T01:17:52.165Z,1023.73
2019-04-21T01:18:49.272Z,1023.73
2019-04-21T01:19:47.098Z,1023.74
2019-04-21T01:20:30.446Z,1023.75
2019-04-21T01:21:29.449Z,1023.72
2019-04-21T01:22:29.429Z,1023.73
2019-04-21T01:23:29.782Z,1023.72
2019-04-21T01:24:34.701Z,1023.71
2019-04-21T01:25:39.331Z,1023.71
2019-04-21T01:26:41.478Z,1023.70
2019-04-21T01:27:52.062Z,1023.72
2019-04-21T01:28:49.568Z,1023.74
2019-04-21T01:29:53.121Z,1023.70
2019-04-21T01:30:54.903Z,1023.72
2019-04-21T01:31:48.067Z,1023.74
2019-04-21T01:32:57.565Z,1023.71
2019-04-21T01:33:50.797Z,1023.68
2019-04-21T01:34:51.629Z,1023.69
2019-04-21T01:35:48.220Z,1023.69
2019-04-21T01:36:46.075Z,1023.68
2019-04-21T01:37:57.789Z,1023.67
2019-04-21T01:38:58.988Z,1023.63
2019-04-21T01:39:53.583Z,1023.69
2019-04-21T01:40:55.493Z,1023.62
2019-04-21T01:41:51.243Z,1023.60
2019-04-21T01:42:51.044Z,1023.57
2019-04-21T01:43:49.164Z,1023.56
2019-04-21T01:44:52.845Z,1023.56
2019-04-21T01:45:48.966Z,1023.54
2019-04-21T01:46:45.418Z,1023.57
2019-04-21T01:47:49.085Z,1023.52
2019-04-21T01:48:44.338Z,1023.50
2019-04-21T01:49:46.661Z,1023.52
2019-04-21T01:50:49.690Z,1023.56
2019-04-21T01:52:03.090Z,1023.52
2019-04-21T01:53:11.531Z,1023.50
2019-04-21T01:53:48.602Z,1023.50
2019-04-21T01:54:48.164Z,1023.50
2019-04-21T01:55:52.832Z,1023.51
2019-04-21T01:56:51.227Z,1023.50
2019-04-21T01:57:45.159Z,1023.51
2019-04-21T01:58:42.794Z,1023.52
2019-04-21T01:59:42.579Z,1023.49
2019-04-21T02:00:45.605Z,1023.49
2019-04-21T02:01:56.363Z,1023.47
2019-04-21T02:02:56.637Z,1023.44
2019-04-21T02:04:02.669Z,1023.45
2019-04-21T02:04:57.971Z,1023.41
2019-04-21T02:05:58.664Z,1023.39
2019-04-21T02:06:50.419Z,1023.46
2019-04-21T02:07:50.525Z,1023.42
2019-04-21T02:08:52.555Z,1023.42
2019-04-21T02:09:55.612Z,1023.45
2019-04-21T02:10:54.951Z,1023.41
2019-04-21T02:11:56.514Z,1023.49
2019-04-21T02:12:50.972Z,1023.49
2019-04-21T02:13:57.671Z,1023.43
2019-04-21T02:14:59.198Z,1023.44
2019-04-21T02:15:59.289Z,1023.45
2019-04-21T02:16:54.046Z,1023.42
2019-04-21T02:17:54.123Z,1023.43
2019-04-21T02:18:49.387Z,1023.44
2019-04-21T02:19:46.340Z,1023.42
2019-04-21T02:20:41.297Z,1023.41
2019-04-21T02:21:46.304Z,1023.44
2019-04-21T02:23:06.704Z,1023.46
2019-04-21T02:23:54.346Z,1023.43
2019-04-21T02:24:59.871Z,1023.42
2019-04-21T02:25:50.591Z,1023.41
2019-04-21T02:26:57.291Z,1023.44
2019-04-21T02:28:55.827Z,1023.41
2019-04-21T02:29:55.628Z,1023.47
2019-04-21T02:31:05.013Z,1023.41
2019-04-21T02:32:05.677Z,1023.45
2019-04-21T02:33:19.612Z,1023.43
2019-04-21T02:33:58.518Z,1023.41
2019-04-21T02:35:25.496Z,1023.43
2019-04-21T02:38:03.648Z,1023.39
2019-04-21T02:40:08.578Z,1023.37
2019-04-21T02:42:15.779Z,1023.31
2019-04-21T02:43:07.365Z,1023.33
2019-04-21T02:44:59.912Z,1023.34
2019-04-21T02:46:10.550Z,1023.34
2019-04-21T02:47:24.110Z,1023.34
2019-04-21T02:50:50.084Z,1023.34
2019-04-21T02:52:02.892Z,1023.37
2019-04-21T02:53:01.327Z,1023.37
2019-04-21T02:54:35.917Z,1023.29
2019-04-21T02:55:03.745Z,1023.34
2019-04-21T02:56:01.069Z,1023.31
2019-04-21T02:57:02.009Z,1023.32
2019-04-21T02:58:06.200Z,1023.30
2019-04-21T02:59:02.392Z,1023.32
2019-04-21T03:01:04.640Z,1023.34
2019-04-21T03:02:17.206Z,1023.28
2019-04-21T03:03:05.760Z,1023.25
2019-04-21T03:04:06.208Z,1023.24
2019-04-21T03:05:07.397Z,1023.22
2019-04-21T03:05:59.615Z,1023.23
2019-04-21T03:07:09.412Z,1023.17
2019-04-21T03:08:15.361Z,1023.13
2019-04-21T03:09:05.906Z,1023.15
2019-04-21T03:09:59.818Z,1023.15
2019-04-21T03:11:04.300Z,1023.14
2019-04-21T03:12:04.987Z,1023.12
2019-04-21T03:13:07.667Z,1023.05
2019-04-21T03:14:10.434Z,1023.08
2019-04-21T03:15:06.084Z,1023.05
2019-04-21T03:16:09.812Z,1023.02
2019-04-21T03:16:58.227Z,1023.03
2019-04-21T03:18:12.995Z,1023.03
2019-04-21T03:19:06.645Z,1023.03
2019-04-21T03:19:59.878Z,1022.98
2019-04-21T03:21:07.153Z,1022.99
2019-04-21T03:22:10.208Z,1023.01
2019-04-21T03:25:21.402Z,1023.00
2019-04-21T03:26:20.378Z,1022.94
2019-04-21T03:27:12.137Z,1022.93
2019-04-21T03:28:04.944Z,1022.96
2019-04-21T03:29:59.263Z,1022.92
2019-04-21T03:31:19.559Z,1022.93
2019-04-21T03:35:37.910Z,1022.90
2019-04-21T03:38:55.373Z,1022.90
2019-04-21T03:39:59.744Z,1022.84
2019-04-21T03:41:01.105Z,1022.89
2019-04-21T03:42:57.158Z,1022.86
2019-04-21T03:43:59.184Z,1022.87
2019-04-21T03:47:06.876Z,1022.84
2019-04-21T03:48:05.300Z,1022.91
2019-04-21T03:49:02.509Z,1022.83
2019-04-21T03:50:04.615Z,1022.86
2019-04-21T03:50:58.785Z,1022.87
2019-04-21T03:52:03.536Z,1022.88
2019-04-21T03:55:19.306Z,1022.88
2019-04-21T03:56:12.432Z,1022.89
2019-04-21T03:57:10.528Z,1022.86
2019-04-21T04:00:16.033Z,1022.85
2019-04-21T04:01:05.880Z,1022.83
2019-04-21T04:02:08.245Z,1022.86
2019-04-21T04:03:08.013Z,1022.89
2019-04-21T04:04:08.483Z,1022.84
2019-04-21T04:05:05.707Z,1022.87
2019-04-21T04:08:17.894Z,1022.93
2019-04-21T04:10:03.693Z,1022.89
2019-04-21T04:12:57.083Z,1022.89
2019-04-21T04:14:03.453Z,1022.82
2019-04-21T04:15:02.920Z,1022.88
2019-04-21T04:16:06.957Z,1022.86
2019-04-21T04:17:06.088Z,1022.86
2019-04-21T04:17:58.787Z,1022.85
2019-04-21T04:20:01.438Z,1022.81
2019-04-21T04:21:06.109Z,1022.80
2019-04-21T04:24:08.983Z,1022.79
2019-04-21T04:25:11.171Z,1022.82
2019-04-21T04:25:59.450Z,1022.82
2019-04-21T04:27:20.900Z,1022.78
2019-04-21T04:28:14.256Z,1022.78
2019-04-21T04:29:03.908Z,1022.80
2019-04-21T04:29:59.284Z,1022.86
2019-04-21T04:32:16.558Z,1022.79
2019-04-21T04:33:03.325Z,1022.83
2019-04-21T04:34:04.877Z,1022.81
2019-04-21T04:35:03.815Z,1022.77
2019-04-21T04:37:05.104Z,1022.87
2019-04-21T04:38:00.487Z,1022.86
2019-04-21T04:39:17.978Z,1022.86
2019-04-21T04:40:17.396Z,1022.89
2019-04-21T04:42:04.929Z,1022.88
2019-04-21T04:42:56.998Z,1022.86
2019-04-21T04:44:04.907Z,1022.89
2019-04-21T04:45:04.326Z,1022.85
2019-04-21T04:47:05.831Z,1022.89
2019-04-21T04:47:59.183Z,1022.88
2019-04-21T04:49:02.068Z,1022.88
2019-04-21T04:49:55.174Z,1022.94
2019-04-21T04:54:22.558Z,1022.87
2019-04-21T04:56:05.782Z,1022.80
2019-04-21T04:57:08.382Z,1022.81
2019-04-21T04:57:59.047Z,1022.85
2019-04-21T05:00:15.478Z,1022.83
2019-04-21T05:01:08.630Z,1022.84
2019-04-21T05:02:20.033Z,1022.83
2019-04-21T05:02:58.775Z,1022.82
2019-04-21T05:03:56.917Z,1022.84
2019-04-21T05:05:07.352Z,1022.84
2019-04-21T05:06:19.374Z,1022.83
2019-04-21T05:06:56.320Z,1022.82
2019-04-21T05:08:15.921Z,1022.82
2019-04-21T05:09:10.934Z,1022.84
2019-04-21T05:10:54.548Z,1022.86
2019-04-21T05:11:20.833Z,1022.86
2019-04-21T05:13:04.299Z,1022.90
2019-04-21T05:15:06.501Z,1022.87
2019-04-21T05:16:02.173Z,1022.86
2019-04-21T05:17:14.175Z,1022.86
2019-04-21T05:20:08.580Z,1022.81
2019-04-21T05:21:04.358Z,1022.79
2019-04-21T05:21:59.525Z,1022.78
2019-04-21T05:23:05.941Z,1022.75
2019-04-21T05:23:50.100Z,1022.77
2019-04-21T05:24:44.094Z,1022.79
2019-04-21T05:26:46.267Z,1022.81
2019-04-21T05:27:45.178Z,1022.80
2019-04-21T05:28:43.628Z,1022.83
2019-04-21T05:29:55.653Z,1022.82
2019-04-21T05:30:56.052Z,1022.79
2019-04-21T05:31:56.181Z,1022.83
2019-04-21T05:32:52.499Z,1022.73
2019-04-21T05:33:54.259Z,1022.83
2019-04-21T05:34:50.489Z,1022.80
2019-04-21T05:35:51.868Z,1022.74
2019-04-21T05:36:45.984Z,1022.72
2019-04-21T05:37:50.359Z,1022.72
2019-04-21T05:38:41.839Z,1022.69
2019-04-21T05:39:42.306Z,1022.70
2019-04-21T05:40:38.822Z,1022.75
2019-04-21T05:41:38.645Z,1022.74
2019-04-21T05:42:45.868Z,1022.79
2019-04-21T05:43:47.511Z,1022.77
2019-04-21T05:45:56.748Z,1022.74
2019-04-21T05:47:00.969Z,1022.78
2019-04-21T05:47:55.884Z,1022.77
2019-04-21T05:48:45.482Z,1022.76
2019-04-21T05:49:48.615Z,1022.76
2019-04-21T05:50:47.921Z,1022.82
2019-04-21T05:51:44.284Z,1022.82
2019-04-21T05:52:43.004Z,1022.81
2019-04-21T05:53:52.100Z,1022.79
2019-04-21T05:55:49.186Z,1022.84
2019-04-21T05:56:51.614Z,1022.83
2019-04-21T05:57:48.120Z,1022.83
2019-04-21T05:58:48.050Z,1022.85
2019-04-21T05:59:49.085Z,1022.80
2019-04-21T06:01:08.715Z,1022.84
2019-04-21T06:02:02.218Z,1022.84
2019-04-21T06:02:50.978Z,1022.80
2019-04-21T06:03:59.677Z,1022.84
2019-04-21T06:05:10.456Z,1022.82
2019-04-21T06:06:13.807Z,1022.83
2019-04-21T06:07:02.094Z,1022.81
2019-04-21T06:07:48.979Z,1022.81
2019-04-21T06:08:48.114Z,1022.81
2019-04-21T06:11:51.395Z,1022.80
2019-04-21T06:12:50.958Z,1022.79
2019-04-21T06:13:55.087Z,1022.81
2019-04-21T06:15:56.193Z,1022.78
2019-04-21T06:17:49.250Z,1022.80
2019-04-21T06:18:53.149Z,1022.79
2019-04-21T06:20:57.588Z,1022.76
2019-04-21T06:21:45.189Z,1022.78
2019-04-21T06:22:52.730Z,1022.75
2019-04-21T06:23:47.898Z,1022.75
2019-04-21T06:25:15.612Z,1022.79
2019-04-21T06:26:11.813Z,1022.79
2019-04-21T06:27:04.924Z,1022.71
2019-04-21T06:27:50.817Z,1022.81
2019-04-21T06:29:04.189Z,1022.75
2019-04-21T06:29:49.147Z,1022.82
2019-04-21T06:30:59.660Z,1022.82
2019-04-21T06:32:17.739Z,1022.77
2019-04-21T06:32:49.283Z,1022.81
2019-04-21T06:33:50.465Z,1022.82
2019-04-21T06:35:07.180Z,1022.80
2019-04-21T06:36:11.370Z,1022.79
2019-04-21T06:37:54.403Z,1022.81
2019-04-21T06:38:59.689Z,1022.77
2019-04-21T06:40:01.863Z,1022.77
2019-04-21T06:40:48.659Z,1022.73
2019-04-21T06:41:49.791Z,1022.74
2019-04-21T06:42:52.282Z,1022.80
2019-04-21T06:43:56.606Z,1022.83
2019-04-21T06:45:03.748Z,1022.81
2019-04-21T06:45:58.932Z,1022.80
2019-04-21T06:46:46.000Z,1022.77
2019-04-21T06:47:49.920Z,1022.78
2019-04-21T06:48:56.969Z,1022.75
2019-04-21T06:49:48.612Z,1022.75
2019-04-21T06:50:52.629Z,1022.77
2019-04-21T06:51:46.851Z,1022.77
2019-04-21T06:52:56.245Z,1022.79
2019-04-21T06:53:54.526Z,1022.72
2019-04-21T06:55:12.069Z,1022.70
2019-04-21T06:55:44.121Z,1022.73
2019-04-21T06:57:26.001Z,1022.78
2019-04-21T06:57:51.872Z,1022.77
2019-04-21T06:58:51.437Z,1022.79
2019-04-21T06:59:43.948Z,1022.80
2019-04-21T07:00:45.599Z,1022.82
2019-04-21T07:01:54.744Z,1022.81
2019-04-21T07:02:52.137Z,1022.79
2019-04-21T07:03:58.952Z,1022.80
2019-04-21T07:04:50.517Z,1022.79
2019-04-21T07:05:56.061Z,1022.77
2019-04-21T07:06:56.333Z,1022.77
2019-04-21T07:07:55.218Z,1022.76
2019-04-21T07:08:56.609Z,1022.75
2019-04-21T07:09:52.773Z,1022.70
2019-04-21T07:10:54.620Z,1022.76
2019-04-21T07:11:48.768Z,1022.79
2019-04-21T07:12:49.690Z,1022.77
2019-04-21T07:13:50.886Z,1022.76
2019-04-21T07:14:48.249Z,1022.69
2019-04-21T07:15:53.889Z,1022.77
2019-04-21T07:16:51.022Z,1022.71
2019-04-21T07:17:51.220Z,1022.78
2019-04-21T07:18:56.599Z,1022.77
2019-04-21T07:20:07.419Z,1022.79
2019-04-21T07:20:50.555Z,1022.78
2019-04-21T07:21:46.753Z,1022.78
2019-04-21T07:22:50.536Z,1022.82
2019-04-21T07:23:57.222Z,1022.78
2019-04-21T07:24:47.979Z,1022.78
2019-04-21T07:25:52.903Z,1022.75
2019-04-21T07:26:51.303Z,1022.78
2019-04-21T07:27:46.867Z,1022.84
2019-04-21T07:28:57.122Z,1022.76
2019-04-21T07:29:53.412Z,1022.76
2019-04-21T07:30:57.538Z,1022.79
2019-04-21T07:31:55.889Z,1022.75
2019-04-21T07:32:55.927Z,1022.71
2019-04-21T07:34:51.897Z,1022.75
2019-04-21T07:35:43.277Z,1022.73
2019-04-21T07:36:54.843Z,1022.72
2019-04-21T07:37:48.119Z,1022.67
2019-04-21T07:38:48.461Z,1022.70
2019-04-21T07:39:46.905Z,1022.65
2019-04-21T07:40:42.703Z,1022.67
2019-04-21T07:41:44.075Z,1022.64
2019-04-21T07:42:45.330Z,1022.62
2019-04-21T07:43:42.848Z,1022.63
2019-04-21T07:44:40.882Z,1022.64
2019-04-21T07:45:40.569Z,1022.61
2019-04-21T07:46:41.594Z,1022.64
2019-04-21T07:47:48.047Z,1022.64
2019-04-21T07:48:49.713Z,1022.63
2019-04-21T07:49:53.083Z,1022.66
2019-04-21T07:50:47.475Z,1022.66
2019-04-21T07:51:50.991Z,1022.62
2019-04-21T07:52:49.386Z,1022.67
2019-04-21T07:53:49.874Z,1022.62
2019-04-21T07:55:03.507Z,1022.61
2019-04-21T07:56:33.270Z,1022.65
2019-04-21T07:57:39.736Z,1022.61
2019-04-21T07:58:49.262Z,1022.63
2019-04-21T07:59:59.383Z,1022.59
2019-04-21T08:00:51.069Z,1022.63
2019-04-21T08:01:48.265Z,1022.60
2019-04-21T08:02:49.757Z,1022.61
2019-04-21T08:03:47.852Z,1022.56
2019-04-21T08:05:07.436Z,1022.52
2019-04-21T08:05:47.093Z,1022.55
2019-04-21T08:06:47.806Z,1022.55
2019-04-21T08:08:12.125Z,1022.52
2019-04-21T08:08:46.672Z,1022.51
2019-04-21T08:09:46.762Z,1022.52
2019-04-21T08:11:44.197Z,1022.49
2019-04-21T08:12:43.349Z,1022.46
2019-04-21T08:13:53.302Z,1022.44
2019-04-21T08:14:46.477Z,1022.44
2019-04-21T08:15:48.194Z,1022.41
2019-04-21T08:16:55.664Z,1022.46
2019-04-21T08:17:47.273Z,1022.45
2019-04-21T08:18:47.230Z,1022.36
2019-04-21T08:19:43.325Z,1022.37
2019-04-21T08:20:41.898Z,1022.43
2019-04-21T08:22:51.679Z,1022.36
2019-04-21T08:23:43.409Z,1022.38
2019-04-21T08:24:50.790Z,1022.39
2019-04-21T08:25:56.992Z,1022.38
2019-04-21T08:27:06.385Z,1022.39
2019-04-21T08:27:54.547Z,1022.39
2019-04-21T08:28:47.531Z,1022.29
2019-04-21T08:29:46.475Z,1022.31
2019-04-21T08:30:44.443Z,1022.33
2019-04-21T08:32:52.772Z,1022.31
2019-04-21T08:34:09.885Z,1022.31
2019-04-21T08:34:55.751Z,1022.31
2019-04-21T08:36:03.352Z,1022.32
2019-04-21T08:36:47.784Z,1022.28
2019-04-21T08:37:43.323Z,1022.30
2019-04-21T08:38:51.576Z,1022.24
2019-04-21T08:39:59.383Z,1022.27
2019-04-21T08:40:40.824Z,1022.27
2019-04-21T08:41:45.169Z,1022.26
2019-04-21T08:42:46.720Z,1022.25
2019-04-21T08:43:45.204Z,1022.23
2019-04-21T08:44:47.854Z,1022.23
2019-04-21T08:45:47.806Z,1022.26
2019-04-21T08:46:46.104Z,1022.20
2019-04-21T08:47:45.825Z,1022.18
2019-04-21T08:48:49.477Z,1022.15
2019-04-21T08:49:49.070Z,1022.20
2019-04-21T08:50:44.499Z,1022.20
2019-04-21T08:51:51.896Z,1022.17
2019-04-21T08:52:49.301Z,1022.18
2019-04-21T08:53:49.293Z,1022.18
2019-04-21T08:54:47.203Z,1022.16
2019-04-21T08:55:49.261Z,1022.16
2019-04-21T08:56:46.781Z,1022.11
2019-04-21T08:57:50.475Z,1022.14
2019-04-21T08:58:54.404Z,1022.08
2019-04-21T08:59:45.941Z,1022.05
2019-04-21T09:00:46.810Z,1022.07
2019-04-21T09:01:42.703Z,1022.10
2019-04-21T09:02:47.509Z,1022.06
2019-04-21T09:03:43.016Z,1022.06
2019-04-21T09:04:46.320Z,1022.07
2019-04-21T09:05:42.616Z,1022.04
2019-04-21T09:07:10.624Z,1022.02
2019-04-21T09:07:45.868Z,1021.99
2019-04-21T09:08:47.508Z,1021.95
2019-04-21T09:09:47.544Z,1021.94
2019-04-21T09:10:39.890Z,1021.95
2019-04-21T09:11:40.531Z,1021.94
2019-04-21T09:12:43.160Z,1021.91
2019-04-21T09:13:42.604Z,1021.88
2019-04-21T09:14:42.973Z,1021.89
2019-04-21T09:15:41.597Z,1021.90
2019-04-21T09:16:41.226Z,1021.86
2019-04-21T09:17:36.738Z,1021.88
2019-04-21T09:18:38.144Z,1021.86
2019-04-21T09:19:52.857Z,1021.84
2019-04-21T09:20:47.347Z,1021.86
2019-04-21T09:21:43.577Z,1021.85
2019-04-21T09:22:41.636Z,1021.83
2019-04-21T09:23:45.558Z,1021.81
2019-04-21T09:24:47.753Z,1021.79
2019-04-21T09:25:46.555Z,1021.79
2019-04-21T09:26:43.170Z,1021.80
2019-04-21T09:27:43.551Z,1021.78
2019-04-21T09:28:39.602Z,1021.76
2019-04-21T09:29:31.022Z,1021.71
2019-04-21T09:30:26.346Z,1021.75
2019-04-21T09:31:31.862Z,1021.77
2019-04-21T09:32:27.629Z,1021.74
2019-04-21T09:33:33.459Z,1021.71
2019-04-21T09:34:35.901Z,1021.66
2019-04-21T09:35:25.124Z,1021.64
2019-04-21T09:36:33.412Z,1021.61
2019-04-21T09:37:39.334Z,1021.68
2019-04-21T09:38:33.865Z,1021.63
2019-04-21T09:39:29.200Z,1021.63
2019-04-21T09:40:30.104Z,1021.55
2019-04-21T09:41:27.408Z,1021.56
2019-04-21T09:42:33.336Z,1021.55
2019-04-21T09:43:35.477Z,1021.52
2019-04-21T09:44:30.866Z,1021.53
2019-04-21T09:45:26.488Z,1021.48
2019-04-21T09:46:25.340Z,1021.44
2019-04-21T09:47:33.615Z,1021.44
2019-04-21T09:48:26.630Z,1021.44
2019-04-21T09:49:29.044Z,1021.41
2019-04-21T09:50:24.966Z,1021.44
2019-04-21T09:51:23.975Z,1021.44
2019-04-21T09:52:29.263Z,1021.48
2019-04-21T09:53:31.229Z,1021.45
2019-04-21T09:54:29.829Z,1021.42
2019-04-21T09:55:31.754Z,1021.39
2019-04-21T09:56:34.352Z,1021.38
2019-04-21T09:57:35.050Z,1021.42
2019-04-21T09:58:32.867Z,1021.37
2019-04-21T09:59:30.011Z,1021.34
2019-04-21T10:00:29.361Z,1021.32
2019-04-21T10:01:32.243Z,1021.34
2019-04-21T10:02:34.184Z,1021.29
2019-04-21T10:03:26.211Z,1021.33
2019-04-21T10:04:23.834Z,1021.24
2019-04-21T10:05:25.059Z,1021.26
2019-04-21T10:06:23.835Z,1021.28
2019-04-21T10:07:30.764Z,1021.29
2019-04-21T10:08:25.085Z,1021.26
2019-04-21T10:09:24.293Z,1021.26
2019-04-21T10:10:23.771Z,1021.25
2019-04-21T10:11:24.527Z,1021.24
2019-04-21T10:12:23.727Z,1021.24
2019-04-21T10:13:25.233Z,1021.19
2019-04-21T10:14:24.306Z,1021.23
2019-04-21T10:15:26.276Z,1021.19
2019-04-21T10:16:23.930Z,1021.14
2019-04-21T10:17:23.978Z,1021.16
2019-04-21T10:18:23.659Z,1021.11
2019-04-21T10:19:23.687Z,1021.17
2019-04-21T10:20:24.502Z,1021.07
2019-04-21T10:21:25.831Z,1021.07
2019-04-21T10:22:23.626Z,1021.08
2019-04-21T10:23:23.616Z,1021.06
2019-04-21T10:24:24.543Z,1021.06
2019-04-21T10:25:24.984Z,1021.06
2019-04-21T10:26:24.379Z,1021.10
2019-04-21T10:27:23.574Z,1021.00
2019-04-21T10:28:23.566Z,1020.98
2019-04-21T10:29:26.462Z,1020.95
2019-04-21T10:30:24.721Z,1020.97
2019-04-21T10:31:24.836Z,1020.93
2019-04-21T10:32:25.256Z,1020.94
2019-04-21T10:33:24.193Z,1020.97
2019-04-21T10:34:23.513Z,1020.90
2019-04-21T10:35:25.015Z,1020.89
2019-04-21T10:36:24.574Z,1020.86
2019-04-21T10:37:36.505Z,1020.88
2019-04-21T10:38:34.820Z,1020.85
2019-04-21T10:39:24.446Z,1020.79
2019-04-21T10:40:23.565Z,1020.81
2019-04-21T10:41:23.453Z,1020.80
2019-04-21T10:42:23.715Z,1020.82
2019-04-21T10:43:24.378Z,1020.79
2019-04-21T10:44:23.384Z,1020.81
2019-04-21T10:45:23.381Z,1020.84
2019-04-21T10:46:24.597Z,1020.82
2019-04-21T10:47:24.703Z,1020.79
2019-04-21T10:48:23.346Z,1020.77
2019-04-21T10:49:24.473Z,1020.77
2019-04-21T10:50:24.481Z,1020.76
2019-04-21T10:51:23.341Z,1020.74
2019-04-21T10:52:23.295Z,1020.77
2019-04-21T10:53:23.321Z,1020.76
2019-04-21T10:54:24.158Z,1020.73
2019-04-21T10:55:40.474Z,1020.77
2019-04-21T10:56:31.330Z,1020.75
2019-04-21T10:57:24.282Z,1020.70
2019-04-21T10:58:24.457Z,1020.67
2019-04-21T10:59:24.998Z,1020.60
2019-04-21T11:00:24.015Z,1020.63
2019-04-21T11:01:23.293Z,1020.54
2019-04-21T11:02:23.225Z,1020.54
2019-04-21T11:03:24.758Z,1020.59
2019-04-21T11:04:29.003Z,1020.57
2019-04-21T11:05:24.899Z,1020.52
2019-04-21T11:06:24.475Z,1020.49
2019-04-21T11:07:27.501Z,1020.45
2019-04-21T11:08:30.030Z,1020.50
2019-04-21T11:09:24.209Z,1020.52
2019-04-21T11:10:23.127Z,1020.71
2019-04-21T11:11:23.866Z,1020.76
2019-04-21T11:12:23.977Z,1020.81
2019-04-21T11:13:23.092Z,1020.72
2019-04-21T11:14:23.196Z,1020.78
2019-04-21T11:15:23.403Z,1020.76
2019-04-21T11:16:23.543Z,1020.76
2019-04-21T11:17:23.962Z,1020.76
2019-04-21T11:18:24.051Z,1020.72
2019-04-21T11:19:24.169Z,1020.67
2019-04-21T11:20:23.018Z,1020.74
2019-04-21T11:21:23.025Z,1020.72
2019-04-21T11:22:23.126Z,1020.69
2019-04-21T11:23:23.053Z,1020.66
2019-04-21T11:24:23.125Z,1020.69
2019-04-21T11:25:24.267Z,1020.62
2019-04-21T11:26:24.182Z,1020.66
2019-04-21T11:27:22.968Z,1020.60
2019-04-21T11:28:23.045Z,1020.60
2019-04-21T11:29:23.278Z,1020.60
2019-04-21T11:30:23.323Z,1020.61
2019-04-21T11:31:23.026Z,1020.59
2019-04-21T11:32:23.156Z,1020.58
2019-04-21T11:33:22.933Z,1020.57
2019-04-21T11:34:23.127Z,1020.56
2019-04-21T11:35:23.395Z,1020.54
2019-04-21T11:36:22.931Z,1020.52
2019-04-21T11:37:24.031Z,1020.54
2019-04-21T11:38:26.623Z,1020.47
2019-04-21T11:39:35.063Z,1020.49
2019-04-21T11:40:25.849Z,1020.44
2019-04-21T11:41:23.829Z,1020.43
2019-04-21T11:42:23.790Z,1020.41
2019-04-21T11:43:23.973Z,1020.44
2019-04-21T11:44:24.724Z,1020.39
2019-04-21T11:45:24.253Z,1020.40
2019-04-21T11:46:22.759Z,1020.37
2019-04-21T11:47:22.789Z,1020.37
2019-04-21T11:48:24.117Z,1020.36
2019-04-21T11:49:24.138Z,1020.43
2019-04-21T11:50:23.243Z,1020.41
2019-04-21T11:51:22.935Z,1020.38
2019-04-21T11:52:22.890Z,1020.35
2019-04-21T11:53:23.147Z,1020.36
2019-04-21T11:54:22.701Z,1020.34
2019-04-21T11:55:22.966Z,1020.37
2019-04-21T11:56:23.158Z,1020.35
2019-04-21T11:57:27.613Z,1020.32
2019-04-21T11:58:23.741Z,1020.33
2019-04-21T11:59:23.732Z,1020.35
2019-04-21T12:00:23.886Z,1020.31
2019-04-21T12:01:23.496Z,1020.29
2019-04-21T12:02:23.563Z,1020.26
2019-04-21T12:03:23.959Z,1020.21
2019-04-21T12:04:23.434Z,1020.22
2019-04-21T12:05:23.627Z,1020.24
2019-04-21T12:06:28.967Z,1020.19
2019-04-21T12:07:23.577Z,1020.16
2019-04-21T12:08:30.271Z,1020.11
2019-04-21T12:09:23.539Z,1020.11
2019-04-21T12:10:23.686Z,1020.11
2019-04-21T12:11:23.271Z,1020.07
2019-04-21T12:12:23.274Z,1020.10
2019-04-21T12:13:22.513Z,1020.03
2019-04-21T12:14:23.763Z,1020.01
2019-04-21T12:15:22.939Z,1019.97
2019-04-21T12:16:23.339Z,1019.92
2019-04-21T12:17:23.639Z,1019.95
2019-04-21T12:18:25.064Z,1019.92
2019-04-21T12:19:22.886Z,1019.93
2019-04-21T12:20:22.444Z,1019.92
2019-04-21T12:21:23.402Z,1019.90
2019-04-21T12:22:28.191Z,1019.86
2019-04-21T12:23:24.405Z,1019.84
2019-04-21T12:24:22.406Z,1019.84
2019-04-21T12:25:23.004Z,1019.80
2019-04-21T12:26:22.425Z,1019.75
2019-04-21T12:27:22.388Z,1019.79
2019-04-21T12:28:23.777Z,1019.77
2019-04-21T12:29:22.782Z,1019.78
2019-04-21T12:30:22.351Z,1019.74
2019-04-21T12:31:23.439Z,1019.78
2019-04-21T12:32:22.367Z,1019.82
2019-04-21T12:33:22.411Z,1019.73
2019-04-21T12:34:23.680Z,1019.69
2019-04-21T12:35:22.319Z,1019.76
2019-04-21T12:36:22.334Z,1019.71
2019-04-21T12:37:22.736Z,1019.71
2019-04-21T12:38:32.369Z,1019.69
2019-04-21T12:39:23.287Z,1019.75
2019-04-21T12:40:22.283Z,1019.73
2019-04-21T12:41:22.603Z,1019.66
2019-04-21T12:42:22.905Z,1019.60
2019-04-21T12:43:22.238Z,1019.60
2019-04-21T12:44:22.585Z,1019.62
2019-04-21T12:45:22.251Z,1019.58
2019-04-21T12:46:22.203Z,1019.53
2019-04-21T12:47:22.222Z,1019.55
2019-04-21T12:48:22.220Z,1019.49
2019-04-21T12:49:22.185Z,1019.51
2019-04-21T12:50:23.496Z,1019.44
2019-04-21T12:51:22.170Z,1019.47
2019-04-21T12:52:22.180Z,1019.49
2019-04-21T12:53:23.417Z,1019.45
2019-04-21T12:54:23.682Z,1019.40
2019-04-21T12:55:26.168Z,1019.37
2019-04-21T12:56:23.469Z,1019.38
2019-04-21T12:57:23.340Z,1019.37
2019-04-21T12:58:23.516Z,1019.38
2019-04-21T12:59:22.095Z,1019.37
2019-04-21T13:01:23.304Z,1019.29
2019-04-21T13:02:43.541Z,1019.30
2019-04-21T13:03:23.480Z,1019.28
2019-04-21T13:04:22.059Z,1019.26
2019-04-21T13:05:22.081Z,1019.26
2019-04-21T13:06:23.418Z,1019.24
2019-04-21T13:07:23.472Z,1019.25
2019-04-21T13:08:22.008Z,1019.23